Time;durP1;ratioP1;P1;durP2;ratioP2;P2;SDS_P1;SDS_P2;PMS_P1;PMS_P2;Temp;Humidity;BMP_temperature;BMP_pressure;BME280_temperature;BME280_humidity;BME280_pressure;Samples;Min_cycle;Max_cycle;Signal;HPM_P1;HPM_P2
2021/09/21 00:00:10;;;;;;;128.27;25.60;;;;;;;7.49;100.00;94434.94;5115987;28;20320;-77
2021/09/21 00:02:37;;;;;;;123.10;26.03;;;;;;;7.62;100.00;94437.06;5116129;28;20563;-77
2021/09/21 00:05:08;;;;;;;140.80;26.43;;;;;;;7.73;100.00;94430.72;5116264;28;20205;-77
2021/09/21 00:07:35;;;;;;;152.20;29.40;;;;;;;7.92;100.00;94439.91;5116121;28;20634;-77
2021/09/21 00:10:05;;;;;;;181.80;33.07;;;;;;;8.22;100.00;94432.31;5115925;28;20201;-78
2021/09/21 00:12:36;;;;;;;211.47;35.73;;;;;;;8.37;100.00;94441.03;5116254;28;20296;-77
2021/09/21 00:15:10;;;;;;;157.57;32.80;;;;;;;8.40;100.00;94439.88;5115731;28;20204;-77
2021/09/21 00:17:37;;;;;;;126.13;27.53;;;;;;;8.34;100.00;94443.97;5115940;28;20197;-77
2021/09/21 00:20:13;;;;;;;144.13;28.17;;;;;;;8.38;100.00;94428.84;5115763;28;20198;-77
2021/09/21 00:22:41;;;;;;;106.50;23.47;;;;;;;8.39;100.00;94426.03;5115680;28;20197;-77
2021/09/21 00:25:09;;;;;;;111.07;23.90;;;;;;;8.38;100.00;94429.66;5115363;28;20233;-77
2021/09/21 00:27:37;;;;;;;112.03;24.00;;;;;;;8.41;100.00;94426.72;5075112;28;20210;-78
2021/09/21 00:30:11;;;;;;;95.60;22.70;;;;;;;8.41;100.00;94420.66;5075078;28;20202;-77
2021/09/21 00:32:44;;;;;;;106.13;22.77;;;;;;;8.46;100.00;94421.00;5074930;28;20194;-77
2021/09/21 00:35:14;;;;;;;103.93;23.23;;;;;;;8.54;100.00;94420.94;5074295;28;20241;-77
2021/09/21 00:37:40;;;;;;;102.67;25.93;;;;;;;8.63;100.00;94426.94;5074948;28;20195;-77
2021/09/21 00:40:12;;;;;;;102.70;24.57;;;;;;;8.62;100.00;94427.91;5074867;28;20202;-77
2021/09/21 00:42:50;;;;;;;126.37;25.23;;;;;;;8.66;100.00;94429.19;5074657;28;20199;-78
2021/09/21 00:45:23;;;;;;;154.30;29.47;;;;;;;8.74;100.00;94431.72;5062875;28;20192;-77
2021/09/21 00:48:07;;;;;;;177.87;31.80;;;;;;;8.85;100.00;94426.13;5054020;28;20558;-78
2021/09/21 00:50:37;;;;;;;174.23;32.60;;;;;;;8.93;100.00;94427.88;5054644;28;20214;-77
2021/09/21 00:53:05;;;;;;;166.13;32.27;;;;;;;8.96;100.00;94430.13;5054798;28;20215;-77
2021/09/21 00:55:32;;;;;;;181.45;38.95;;;;;;;9.00;100.00;94428.78;5054049;28;20440;-77
2021/09/21 00:58:01;;;;;;;177.30;33.53;;;;;;;9.05;100.00;94420.47;5054598;28;20199;-78
2021/09/21 01:00:28;;;;;;;158.10;31.60;;;;;;;9.06;100.00;94422.09;5054361;28;20708;-77
2021/09/21 01:02:55;;;;;;;162.37;31.07;;;;;;;9.09;100.00;94426.94;5054318;28;20200;-77
2021/09/21 01:05:22;;;;;;;155.33;31.07;;;;;;;9.12;100.00;94428.38;5054392;28;20227;-77
2021/09/21 01:07:50;;;;;;;156.50;29.93;;;;;;;9.17;100.00;94426.88;5054201;28;20199;-77
2021/09/21 01:10:19;;;;;;;142.63;28.90;;;;;;;9.16;100.00;94422.66;5054288;28;20196;-78
2021/09/21 01:12:48;;;;;;;152.53;28.83;;;;;;;9.19;100.00;94422.31;5054470;28;20203;-78
2021/09/21 01:15:15;;;;;;;120.70;27.93;;;;;;;9.22;100.00;94419.31;5053945;28;20203;-77
2021/09/21 01:17:44;;;;;;;109.30;26.43;;;;;;;9.28;100.00;94411.81;5054307;28;20196;-77
2021/09/21 01:20:12;;;;;;;117.40;27.70;;;;;;;9.29;100.00;94413.44;5053990;28;20203;-77
2021/09/21 01:22:41;;;;;;;114.17;27.20;;;;;;;9.29;100.00;94409.00;5054084;28;20293;-76
2021/09/21 01:25:10;;;;;;;115.23;27.20;;;;;;;9.32;100.00;94415.69;5053856;28;20208;-77
2021/09/21 01:27:38;;;;;;;120.37;27.57;;;;;;;9.31;100.00;94411.44;5094210;28;20197;-77
2021/09/21 01:30:12;;;;;;;112.47;27.70;;;;;;;9.33;100.00;94418.13;5094313;28;20202;-76
2021/09/21 01:32:40;;;;;;;106.77;26.33;;;;;;;9.36;100.00;94412.56;5093954;28;20194;-76
2021/09/21 01:35:09;;;;;;;106.60;26.03;;;;;;;9.32;100.00;94419.09;5093960;28;20198;-76
2021/09/21 01:37:39;;;;;;;99.37;24.60;;;;;;;9.37;100.00;94426.38;5093782;28;20424;-77
2021/09/21 01:40:09;;;;;;;91.33;24.63;;;;;;;9.34;100.00;94421.50;5094112;28;20210;-77
2021/09/21 01:42:35;;;;;;;104.93;26.27;;;;;;;9.41;100.00;94431.06;5093612;28;20260;-76
2021/09/21 01:45:01;;;;;;;99.33;26.47;;;;;;;9.36;100.00;94430.78;5105211;28;20198;-77
2021/09/21 01:47:28;;;;;;;87.37;23.93;;;;;;;9.35;100.00;94430.97;5114042;28;20202;-76
2021/09/21 01:50:18;;;;;;;84.03;23.67;;;;;;;9.35;100.00;94441.38;5113965;28;20202;-77
2021/09/21 01:52:49;;;;;;;98.17;24.70;;;;;;;9.34;100.00;94439.75;5114000;28;20240;-76
2021/09/21 01:58:17;;;;;;;82.33;23.37;;;;;;;9.38;100.00;94441.03;5114111;28;20197;-77
2021/09/21 01:58:19;;;;;;;68.33;21.83;;;;;;;9.42;100.00;94439.69;5113843;28;20201;-77
2021/09/21 02:00:45;;;;;;;79.60;22.37;;;;;;;9.41;100.00;94443.31;5114015;28;20229;-77
2021/09/21 02:03:14;;;;;;;86.93;24.03;;;;;;;9.39;100.00;94450.47;5113922;28;20205;-76
2021/09/21 02:05:41;;;;;;;79.10;22.20;;;;;;;9.43;100.00;94454.34;5113792;28;20590;-77
2021/09/21 02:08:07;;;;;;;73.00;22.03;;;;;;;9.39;100.00;94458.28;5113636;28;20197;-77
2021/09/21 02:10:35;;;;;;;75.63;22.33;;;;;;;9.38;100.00;94461.88;5113758;28;20602;-76
2021/09/21 02:13:01;;;;;;;56.60;20.30;;;;;;;9.51;100.00;94456.06;5113860;28;20197;-77
2021/09/21 02:15:31;;;;;;;68.70;22.20;;;;;;;9.41;100.00;94456.34;5113211;28;20198;-77
2021/09/21 02:17:59;;;;;;;71.00;21.30;;;;;;;9.33;100.00;94453.78;5113586;28;20204;-77
2021/09/21 02:20:25;;;;;;;62.13;21.30;;;;;;;9.29;100.00;94447.28;5113707;28;20217;-77
2021/09/21 02:22:52;;;;;;;55.07;19.53;;;;;;;9.37;100.00;94445.44;5113582;28;20224;-77
2021/09/21 02:25:21;;;;;;;56.57;19.90;;;;;;;9.31;100.00;94440.94;5113125;28;20698;-77
2021/09/21 02:27:49;;;;;;;52.67;19.33;;;;;;;9.32;100.00;94442.53;5113747;28;20258;-76
2021/09/21 02:30:15;;;;;;;56.03;19.30;;;;;;;9.26;100.00;94438.84;5113666;28;20197;-76
2021/09/21 02:32:42;;;;;;;60.57;19.30;;;;;;;9.23;100.00;94441.81;5113483;28;20205;-77
2021/09/21 02:35:09;;;;;;;59.40;20.47;;;;;;;9.19;100.00;94448.38;5113220;28;20221;-77
2021/09/21 02:37:36;;;;;;;62.07;19.50;;;;;;;9.18;100.00;94462.38;5113292;28;20537;-76
2021/09/21 02:40:03;;;;;;;58.60;19.67;;;;;;;9.14;100.00;94457.66;5113265;28;20292;-77
2021/09/21 02:42:30;;;;;;;63.10;19.73;;;;;;;9.14;100.00;94462.88;5113093;28;20237;-77
2021/09/21 02:44:58;;;;;;;61.27;20.47;;;;;;;9.13;100.00;94453.47;5113462;28;20212;-77
2021/09/21 02:47:24;;;;;;;56.43;18.33;;;;;;;9.11;100.00;94464.06;5113383;28;20206;-76
2021/09/21 02:49:53;;;;;;;64.00;20.70;;;;;;;9.10;100.00;94465.03;5113220;28;20201;-77
2021/09/21 02:52:19;;;;;;;55.17;18.30;;;;;;;9.10;100.00;94465.03;5113137;28;20209;-77
2021/09/21 02:54:46;;;;;;;58.07;18.73;;;;;;;9.14;100.00;94468.88;5113381;28;20197;-77
2021/09/21 02:57:12;;;;;;;61.93;18.97;;;;;;;9.16;100.00;94469.53;5113317;28;20208;-77
2021/09/21 02:59:39;;;;;;;67.43;19.63;;;;;;;9.17;100.00;94470.34;5113324;28;20201;-77
2021/09/21 03:02:07;;;;;;;52.57;17.63;;;;;;;9.16;100.00;94466.13;5113033;28;20228;-77
2021/09/21 03:04:36;;;;;;;55.83;17.10;;;;;;;9.12;100.00;94470.88;5113185;28;20205;-77
2021/09/21 03:07:05;;;;;;;61.53;17.53;;;;;;;9.14;100.00;94461.06;5112940;28;20292;-77
2021/09/21 03:09:49;;;;;;;53.33;17.67;;;;;;;9.13;100.00;94459.47;5113239;28;20201;-77
2021/09/21 03:12:23;;;;;;;68.93;18.90;;;;;;;9.14;100.00;94458.47;5113229;28;20224;-77
2021/09/21 03:17:40;;;;;;;69.73;21.00;;;;;;;9.13;100.00;94463.88;5113060;28;20651;-77
2021/09/21 03:20:07;;;;;;;62.67;19.23;;;;;;;9.10;100.00;94467.63;5112796;28;20220;-77
2021/09/21 03:22:34;;;;;;;64.63;19.87;;;;;;;9.10;100.00;94475.44;5113026;28;20225;-77
2021/09/21 03:25:00;;;;;;;81.60;22.70;;;;;;;9.10;100.00;94479.84;5112921;28;20666;-77
2021/09/21 03:27:27;;;;;;;70.17;21.40;;;;;;;9.10;100.00;94485.88;5112755;28;20705;-77
2021/09/21 03:29:53;;;;;;;75.93;21.87;;;;;;;9.08;100.00;94485.22;5116685;28;20212;-76
2021/09/21 03:32:20;;;;;;;62.40;18.87;;;;;;;9.10;100.00;94483.25;5116941;28;20219;-78
2021/09/21 03:34:48;;;;;;;67.77;18.87;;;;;;;9.14;100.00;94483.72;5116924;28;20205;-77
2021/09/21 03:37:15;;;;;;;57.87;16.77;;;;;;;9.17;100.00;94486.78;5116677;28;20587;-77
2021/09/21 03:39:42;;;;;;;66.13;20.97;;;;;;;9.29;100.00;94483.78;5116592;28;20212;-77
2021/09/21 03:42:09;;;;;;;66.73;20.93;;;;;;;9.29;100.00;94488.97;5116544;28;20224;-76
2021/09/21 03:44:35;;;;;;;59.80;17.87;;;;;;;9.26;100.00;94490.16;5116178;28;20258;-77
2021/09/21 03:47:02;;;;;;;66.00;19.90;;;;;;;9.26;100.00;94480.53;5115680;28;20652;-76
2021/09/21 03:49:29;;;;;;;58.87;19.10;;;;;;;9.28;100.00;94485.56;5116619;28;20197;-77
2021/09/21 03:51:57;;;;;;;65.07;17.90;;;;;;;9.26;100.00;94480.53;5116307;28;20205;-76
2021/09/21 03:54:24;;;;;;;55.90;17.13;;;;;;;9.28;100.00;94476.97;5116417;28;20288;-76
2021/09/21 03:56:50;;;;;;;61.57;18.90;;;;;;;9.23;100.00;94483.50;5116092;28;20197;-77
2021/09/21 03:59:17;;;;;;;54.43;16.60;;;;;;;9.24;100.00;94482.50;5116395;28;20319;-77
2021/09/21 04:01:43;;;;;;;56.97;17.30;;;;;;;9.24;100.00;94479.91;5116202;28;20225;-77
2021/09/21 04:04:10;;;;;;;56.43;17.33;;;;;;;9.24;100.00;94482.50;5116227;28;20203;-77
2021/09/21 04:06:37;;;;;;;64.27;18.60;;;;;;;9.28;100.00;94482.16;5116318;27;20193;-77
2021/09/21 04:09:04;;;;;;;51.50;16.90;;;;;;;9.28;100.00;94477.75;5116009;28;20285;-78
2021/09/21 04:11:31;;;;;;;66.57;17.97;;;;;;;9.30;100.00;94469.78;5115720;27;20721;-77
2021/09/21 04:13:58;;;;;;;66.47;18.47;;;;;;;9.28;100.00;94476.97;5116135;28;20200;-77
2021/09/21 04:16:24;;;;;;;63.87;17.70;;;;;;;9.28;100.00;94469.16;5116092;28;20278;-77
2021/09/21 04:18:50;;;;;;;62.87;17.53;;;;;;;9.25;100.00;94476.31;5115752;28;20201;-76
2021/09/21 04:21:17;;;;;;;71.23;18.67;;;;;;;9.25;100.00;94486.72;5115811;28;20209;-77
2021/09/21 04:23:43;;;;;;;69.30;17.63;;;;;;;9.25;100.00;94484.13;5115802;28;20193;-77
2021/09/21 04:26:11;;;;;;;70.17;18.67;;;;;;;9.24;100.00;94482.50;5115355;28;20264;-77
2021/09/21 04:28:40;;;;;;;60.57;17.67;;;;;;;9.25;100.00;94481.50;5115523;28;20663;-76
2021/09/21 04:31:10;;;;;;;59.87;16.13;;;;;;;9.24;100.00;94490.34;5115758;28;20296;-77
2021/09/21 04:33:40;;;;;;;53.70;16.97;;;;;;;9.28;100.00;94482.16;5115614;28;20288;-78
2021/09/21 04:36:07;;;;;;;50.40;15.47;;;;;;;9.28;100.00;94484.78;5115657;28;20559;-77
2021/09/21 04:38:34;;;;;;;51.87;16.60;;;;;;;9.28;100.00;94492.59;5114827;28;20201;-77
2021/09/21 04:41:03;;;;;;;59.87;17.13;;;;;;;9.27;100.00;94496.97;5115707;28;20197;-77
2021/09/21 04:43:31;;;;;;;45.40;15.43;;;;;;;9.31;100.00;94500.03;5115462;28;20236;-77
2021/09/21 04:45:58;;;;;;;41.17;13.60;;;;;;;9.31;100.00;94506.06;5115465;28;20202;-76
2021/09/21 04:48:25;;;;;;;51.57;14.87;;;;;;;9.35;100.00;94506.53;5115369;28;20201;-77
2021/09/21 04:50:52;;;;;;;44.13;14.77;;;;;;;9.37;100.00;94517.59;5115150;28;20193;-77
2021/09/21 04:53:20;;;;;;;56.60;15.43;;;;;;;9.35;100.00;94511.75;5115132;28;20209;-77
2021/09/21 04:55:47;;;;;;;57.63;16.77;;;;;;;9.34;100.00;94516.16;5115574;28;20225;-77
2021/09/21 04:58:13;;;;;;;55.80;17.50;;;;;;;9.34;100.00;94516.16;5115187;28;20678;-77
2021/09/21 05:00:42;;;;;;;64.07;22.70;;;;;;;9.47;100.00;94519.97;5113772;28;20475;-77
2021/09/21 05:03:11;;;;;;;62.63;19.90;;;;;;;9.56;100.00;94524.09;5114872;28;20232;-76
2021/09/21 05:05:38;;;;;;;57.97;19.47;;;;;;;9.46;100.00;94532.19;5114834;28;20197;-78
2021/09/21 05:08:05;;;;;;;53.20;18.10;;;;;;;9.45;100.00;94535.78;5115088;28;20198;-77
2021/09/21 05:10:32;;;;;;;62.87;19.10;;;;;;;9.46;100.00;94537.41;5114852;28;20197;-77
2021/09/21 05:13:00;;;;;;;60.37;19.27;;;;;;;9.50;100.00;94543.88;5114825;28;20198;-77
2021/09/21 05:15:27;;;;;;;62.20;20.13;;;;;;;9.53;100.00;94556.56;5114788;28;20201;-77
2021/09/21 05:17:55;;;;;;;82.10;23.43;;;;;;;9.48;100.00;94550.25;5114666;28;20209;-76
2021/09/21 05:20:21;;;;;;;76.67;21.60;;;;;;;9.52;100.00;94554.94;5114523;28;20224;-76
2021/09/21 05:22:52;;;;;;;75.50;22.30;;;;;;;9.61;100.00;94551.28;5114451;28;20229;-77
2021/09/21 05:25:18;;;;;;;79.00;22.90;;;;;;;9.66;100.00;94553.38;5114587;28;20533;-77
2021/09/21 05:27:45;;;;;;;73.37;22.03;;;;;;;9.72;100.00;94560.47;5114589;28;20201;-77
2021/09/21 05:30:12;;;;;;;72.67;21.13;;;;;;;9.74;100.00;94553.31;5114420;28;20197;-77
2021/09/21 05:32:41;;;;;;;70.17;22.07;;;;;;;9.80;100.00;94564.81;5114395;27;20223;-77
2021/09/21 05:35:10;;;;;;;87.00;23.87;;;;;;;9.72;100.00;94570.09;5114488;28;20208;-76
2021/09/21 05:37:36;;;;;;;87.03;23.93;;;;;;;9.78;100.00;94566.81;5114393;28;20201;-77
2021/09/21 05:40:03;;;;;;;86.93;24.17;;;;;;;9.78;100.00;94569.41;5114452;28;20209;-77
2021/09/21 05:42:30;;;;;;;90.10;23.97;;;;;;;9.76;100.00;94581.81;5114230;28;20225;-77
2021/09/21 05:44:56;;;;;;;102.97;26.00;;;;;;;9.75;100.00;94588.81;5114202;28;20228;-77
2021/09/21 05:47:23;;;;;;;81.20;23.03;;;;;;;9.79;100.00;94594.50;5113465;28;20201;-77
2021/09/21 05:49:50;;;;;;;83.13;22.93;;;;;;;9.85;100.00;94593.00;5114059;28;20219;-77
2021/09/21 05:52:18;;;;;;;83.40;23.50;;;;;;;9.99;100.00;94606.09;5113576;28;20202;-77
2021/09/21 05:54:44;;;;;;;75.40;21.47;;;;;;;10.02;100.00;94606.72;5114069;28;20221;-77
2021/09/21 05:57:11;;;;;;;85.43;24.23;;;;;;;9.94;100.00;94615.41;5114002;28;20197;-77
2021/09/21 05:59:37;;;;;;;75.03;22.03;;;;;;;10.05;100.00;94622.00;5113907;28;20568;-77
2021/09/21 06:02:04;;;;;;;71.13;21.83;;;;;;;10.11;100.00;94616.91;5113684;28;20232;-77
2021/09/21 06:04:30;;;;;;;72.47;21.60;;;;;;;10.22;100.00;94625.28;5113807;28;20660;-77
2021/09/21 06:07:00;;;;;;;79.00;23.13;;;;;;;10.13;100.00;94627.16;5113984;28;20193;-76
2021/09/21 06:09:28;;;;;;;104.35;24.83;;;;;;;9.99;100.00;94633.94;5114019;28;20285;-77
2021/09/21 06:11:54;;;;;;;99.80;26.13;;;;;;;10.01;100.00;94634.59;5113769;28;20208;-77
2021/09/21 06:14:20;;;;;;;97.70;25.53;;;;;;;10.00;100.00;94636.38;5113664;28;20221;-76
2021/09/21 06:16:47;;;;;;;125.63;28.00;;;;;;;9.96;100.00;94636.94;5113884;28;20220;-77
2021/09/21 06:19:15;;;;;;;124.77;30.37;;;;;;;9.98;100.00;94638.34;5113718;28;20198;-76
2021/09/21 06:21:42;;;;;;;141.20;29.90;;;;;;;10.01;100.00;94639.81;5113499;28;20208;-76
2021/09/21 06:24:08;;;;;;;164.23;32.50;;;;;;;10.01;100.00;94637.22;5113519;28;20202;-77
2021/09/21 06:26:36;;;;;;;286.23;34.30;;;;;;;9.95;100.00;94633.50;5113333;28;20229;-77
2021/09/21 06:29:03;;;;;;;325.23;33.90;;;;;;;9.96;100.00;94635.13;5113402;28;20205;-77
2021/09/21 06:31:30;;;;;;;131.87;29.47;;;;;;;9.93;100.00;94640.69;5113645;28;20197;-77
2021/09/21 06:33:56;;;;;;;448.47;36.70;;;;;;;9.94;100.00;94634.50;5113504;28;20291;-77
2021/09/21 06:36:23;;;;;;;514.10;43.17;;;;;;;9.92;100.00;94630.44;5112254;28;20434;-77
2021/09/21 06:38:49;;;;;;;307.23;32.67;;;;;;;9.96;100.00;94632.50;5113265;28;20560;-77
2021/09/21 06:41:16;;;;;;;244.47;32.20;;;;;;;10.04;100.00;94638.63;5113424;28;20532;-77
2021/09/21 06:43:48;;;;;;;121.70;27.77;;;;;;;10.07;100.00;94639.09;5113079;28;20634;-77
2021/09/21 06:46:20;;;;;;;124.70;28.23;;;;;;;10.10;100.00;94637.94;5113416;28;20250;-77
2021/09/21 06:48:49;;;;;;;194.63;31.90;;;;;;;10.02;100.00;94624.97;5113459;28;20196;-78
2021/09/21 06:51:18;;;;;;;120.67;30.17;;;;;;;10.05;100.00;94630.66;5113432;28;20595;-77
2021/09/21 06:53:49;;;;;;;157.70;30.23;;;;;;;10.07;100.00;94618.22;5113176;28;20293;-77
2021/09/21 06:56:15;;;;;;;103.70;29.87;;;;;;;10.11;100.00;94634.38;5113142;28;20273;-77
2021/09/21 06:58:43;;;;;;;108.50;29.37;;;;;;;10.19;100.00;94622.06;5113061;28;20667;-78
2021/09/21 07:01:10;;;;;;;175.80;31.03;;;;;;;10.17;100.00;94633.63;5112814;28;20288;-76
2021/09/21 07:03:38;;;;;;;115.70;29.63;;;;;;;10.24;100.00;94634.56;5116823;28;20225;-77
2021/09/21 07:06:07;;;;;;;94.33;29.20;;;;;;;10.27;100.00;94630.78;5117433;28;20197;-78
2021/09/21 07:08:36;;;;;;;111.07;29.47;;;;;;;10.35;100.00;94628.94;5117033;28;20254;-76
2021/09/21 07:11:03;;;;;;;86.17;28.17;;;;;;;10.45;100.00;94627.88;5116685;28;20651;-77
2021/09/21 07:13:32;;;;;;;91.73;26.80;;;;;;;10.71;100.00;94635.28;5117259;28;20201;-77
2021/09/21 07:16:00;;;;;;;97.68;27.25;;;;;;;10.87;100.00;94636.91;5116950;28;20656;-77
2021/09/21 07:18:26;;;;;;;90.20;26.33;;;;;;;10.92;100.00;94645.00;5117024;28;20205;-79
2021/09/21 07:20:56;;;;;;;89.87;25.30;;;;;;;10.72;100.00;94649.94;5116881;28;20662;-78
2021/09/21 07:23:25;;;;;;;72.93;25.07;;;;;;;10.93;100.00;94657.09;5116796;28;20225;-76
2021/09/21 07:25:55;;;;;;;75.40;23.88;;;;;;;10.96;100.00;94661.97;5116711;28;20229;-77
2021/09/21 07:28:34;;;;;;;77.17;24.03;;;;;;;10.93;100.00;94660.50;5116979;28;20232;-77
2021/09/21 07:31:02;;;;;;;84.78;25.00;;;;;;;11.11;100.00;94673.22;5117003;28;20240;-77
2021/09/21 07:33:30;;;;;;;66.07;22.77;;;;;;;11.04;100.00;94682.78;5116520;28;20206;-77
2021/09/21 07:35:59;;;;;;;58.85;21.98;;;;;;;11.11;100.00;94688.88;5116596;28;20202;-77
2021/09/21 07:38:27;;;;;;;61.03;21.60;;;;;;;11.02;100.00;94689.16;5116246;28;20274;-76
2021/09/21 07:40:54;;;;;;;66.95;22.38;;;;;;;11.31;100.00;94701.41;5116478;28;20652;-78
2021/09/21 07:43:28;;;;;;;62.17;21.33;;;;;;;11.00;100.00;94693.75;5104351;28;20226;-77
2021/09/21 07:45:55;;;;;;;59.07;21.20;;;;;;;11.01;100.00;94693.56;5096221;28;20227;-77
2021/09/21 07:48:25;;;;;;;63.03;22.27;;;;;;;10.73;100.00;94696.00;5095884;28;20571;-76
2021/09/21 07:50:56;;;;;;;57.73;22.83;;;;;;;10.61;100.00;94703.44;5096041;28;20205;-76
2021/09/21 07:53:23;;;;;;;61.53;23.00;;;;;;;10.45;100.00;94708.81;5095979;28;20619;-77
2021/09/21 07:55:50;;;;;;;64.33;24.23;;;;;;;10.21;100.00;94713.22;5095771;28;20548;-76
2021/09/21 07:58:17;;;;;;;60.70;24.50;;;;;;;10.30;100.00;94712.16;5095786;28;20258;-77
2021/09/21 08:00:43;;;;;;;61.70;24.50;;;;;;;10.27;100.00;94707.28;5095726;28;20202;-77
2021/09/21 08:03:10;;;;;;;61.33;25.57;;;;;;;10.24;100.00;94720.69;5095823;28;20225;-77
2021/09/21 08:05:38;;;;;;;59.70;25.17;;;;;;;10.27;100.00;94717.72;5095805;28;20202;-77
2021/09/21 08:08:05;;;;;;;67.10;27.13;;;;;;;10.26;100.00;94726.56;5095686;28;20202;-77
2021/09/21 08:10:31;;;;;;;56.40;24.93;;;;;;;10.22;100.00;94725.25;5095768;28;20202;-77
2021/09/21 08:12:58;;;;;;;54.40;22.83;;;;;;;10.28;100.00;94728.97;5101328;28;20202;-77
2021/09/21 08:15:26;;;;;;;66.35;30.70;;;;;;;10.33;100.00;94727.50;5095905;28;20428;-76
2021/09/21 08:17:53;;;;;;;59.50;25.33;;;;;;;10.26;100.00;94738.75;5095492;28;20202;-77
2021/09/21 08:20:19;;;;;;;58.07;23.23;;;;;;;10.22;100.00;94748.75;5095597;28;20195;-77
2021/09/21 08:22:47;;;;;;;47.47;22.07;;;;;;;10.16;100.00;94754.69;5095306;28;20225;-76
2021/09/21 08:25:14;;;;;;;56.23;24.10;;;;;;;10.22;100.00;94756.56;5095185;28;20201;-77
2021/09/21 08:27:42;;;;;;;59.93;24.67;;;;;;;10.22;100.00;94761.00;5108377;28;20201;-77
2021/09/21 08:30:12;;;;;;;65.33;21.90;;;;;;;10.12;100.00;94766.44;5115564;28;20262;-77
2021/09/21 08:32:38;;;;;;;61.63;22.37;;;;;;;10.17;100.00;94764.94;5115392;27;20202;-78
2021/09/21 08:35:09;;;;;;;50.00;21.83;;;;;;;10.22;100.00;94766.22;5115691;28;20209;-77
2021/09/21 08:37:38;;;;;;;46.47;21.87;;;;;;;10.30;100.00;94774.78;5115597;28;20193;-78
2021/09/21 08:40:07;;;;;;;52.33;22.33;;;;;;;10.43;100.00;94768.22;5115141;28;20197;-77
2021/09/21 08:42:34;;;;;;;48.67;20.93;;;;;;;10.41;100.00;94770.16;5114989;28;20202;-77
2021/09/21 08:45:00;;;;;;;48.37;21.47;;;;;;;10.41;100.00;94775.41;5115540;28;20201;-77
2021/09/21 08:47:27;;;;;;;61.77;22.63;;;;;;;10.47;100.00;94772.91;5115125;28;20243;-77
2021/09/21 08:49:55;;;;;;;68.53;22.77;;;;;;;10.50;100.00;94769.13;5114061;28;20656;-78
2021/09/21 08:52:21;;;;;;;55.20;21.70;;;;;;;10.31;100.00;94771.19;5115165;28;20262;-76
2021/09/21 08:54:48;;;;;;;48.20;19.03;;;;;;;10.32;100.00;94777.25;5115039;28;20205;-77
2021/09/21 08:57:16;;;;;;;44.93;20.20;;;;;;;10.39;100.00;94772.16;5115242;28;20201;-77
2021/09/21 08:59:44;;;;;;;41.20;18.83;;;;;;;10.46;100.00;94771.28;5115169;28;20204;-77
2021/09/21 09:02:12;;;;;;;40.87;19.27;;;;;;;10.57;100.00;94780.50;5113182;28;20242;-76
2021/09/21 09:04:40;;;;;;;40.53;22.15;;;;;;;10.57;100.00;94783.09;5113530;28;20504;-77
2021/09/21 09:07:07;;;;;;;40.57;20.03;;;;;;;10.59;100.00;94785.53;5114971;28;20197;-76
2021/09/21 09:09:37;;;;;;;39.10;18.80;;;;;;;10.68;100.00;94785.31;5114770;28;20774;-76
2021/09/21 09:12:06;;;;;;;37.47;18.03;;;;;;;10.69;100.00;94781.72;5115254;28;20202;-76
2021/09/21 09:14:36;;;;;;;39.73;18.90;;;;;;;10.70;100.00;94774.69;5114637;28;20674;-78
2021/09/21 09:17:05;;;;;;;40.75;18.58;;;;;;;10.66;100.00;94782.06;5114807;28;20224;-77
2021/09/21 09:19:35;;;;;;;42.53;17.47;;;;;;;10.79;100.00;94788.50;5114546;28;20208;-78
2021/09/21 09:22:06;;;;;;;35.80;17.77;;;;;;;10.88;100.00;94792.66;5114519;28;20193;-77
2021/09/21 09:24:33;;;;;;;36.30;17.40;;;;;;;11.02;100.00;94794.47;5114469;28;20231;-77
2021/09/21 09:27:00;;;;;;;37.67;17.77;;;;;;;10.99;100.00;94784.41;5114228;28;20738;-77
2021/09/21 09:29:26;;;;;;;35.70;17.67;;;;;;;11.43;100.00;94781.00;5114473;28;20201;-78
2021/09/21 09:32:00;;;;;;;39.15;18.52;;;;;;;11.69;100.00;94779.75;5114091;28;20201;-77
2021/09/21 09:34:28;;;;;;;40.20;17.02;;;;;;;12.01;100.00;94780.34;5113646;28;20283;-77
2021/09/21 09:36:58;;;;;;;30.92;15.52;;;;;;;12.71;100.00;94784.06;5114466;28;20199;-77
2021/09/21 09:39:28;;;;;;;33.72;16.77;;;;;;;12.54;100.00;94778.28;5114382;28;20201;-77
2021/09/21 09:41:57;;;;;;;31.83;16.23;;;;;;;12.26;100.00;94790.47;5114347;28;20201;-77
2021/09/21 09:44:26;;;;;;;32.72;14.90;;;;;;;12.17;100.00;94793.22;5114142;28;20725;-76
2021/09/21 09:46:55;;;;;;;31.45;17.45;;;;;;;12.34;100.00;94800.81;5114058;28;20205;-77
2021/09/21 09:49:25;;;;;;;29.52;14.75;;;;;;;12.53;100.00;94800.22;5114203;28;20197;-76
2021/09/21 09:51:54;;;;;;;28.38;15.10;;;;;;;12.70;100.00;94798.16;5113958;28;20197;-77
2021/09/21 09:54:21;;;;;;;25.92;14.93;;;;;;;12.64;100.00;94808.56;5113943;28;20205;-77
2021/09/21 09:56:48;;;;;;;26.27;14.80;;;;;;;12.81;100.00;94809.94;5113959;28;20201;-77
2021/09/21 09:59:16;;;;;;;26.55;14.60;;;;;;;13.10;100.00;94808.97;5113874;28;20205;-77
2021/09/21 10:01:44;;;;;;;25.23;14.10;;;;;;;13.37;100.00;94803.13;5113716;28;20206;-77
2021/09/21 10:04:13;;;;;;;24.88;14.68;;;;;;;13.52;100.00;94809.06;5113773;28;20257;-76
2021/09/21 10:06:39;;;;;;;24.08;13.10;;;;;;;13.75;100.00;94805.38;5113901;28;20201;-77
2021/09/21 10:09:06;;;;;;;24.15;14.35;;;;;;;13.66;100.00;94816.03;5113809;28;20201;-76
2021/09/21 10:11:33;;;;;;;24.98;13.25;;;;;;;13.87;100.00;94820.38;5113754;28;20208;-77
2021/09/21 10:14:02;;;;;;;26.95;13.68;;;;;;;13.58;100.00;94824.06;5113327;28;20204;-77
2021/09/21 10:16:28;;;;;;;25.98;12.77;;;;;;;13.52;100.00;94819.56;5113727;28;20212;-76
2021/09/21 10:18:56;;;;;;;24.33;13.75;;;;;;;13.13;100.00;94820.91;5112477;28;20197;-77
2021/09/21 10:21:42;;;;;;;26.80;13.43;;;;;;;13.01;100.00;94814.56;5113754;28;20201;-77
2021/09/21 10:24:10;;;;;;;26.58;14.40;;;;;;;13.38;100.00;94820.50;5103264;28;20224;-77
2021/09/21 10:26:40;;;;;;;24.67;13.70;;;;;;;13.88;100.00;94815.94;5113262;28;20256;-77
2021/09/21 10:29:07;;;;;;;30.60;18.70;;;;;;;14.28;100.00;94820.53;5113745;28;20202;-77
2021/09/21 10:31:34;;;;;;;27.70;15.43;;;;;;;13.88;100.00;94823.81;5113568;28;20197;-75
2021/09/21 10:34:11;;;;;;;23.77;13.45;;;;;;;13.72;100.00;94826.75;5113561;28;20205;-75
2021/09/21 10:36:48;;;;;;;26.38;15.02;;;;;;;13.42;100.00;94833.06;5113080;28;20208;-75
2021/09/21 10:39:16;;;;;;;25.83;14.65;;;;;;;13.27;100.00;94830.50;5113347;28;20205;-75
2021/09/21 10:41:51;;;;;;;28.05;15.70;;;;;;;12.85;100.00;94832.16;5113578;28;20251;-75
2021/09/21 10:44:18;;;;;;;28.08;14.73;;;;;;;12.87;100.00;94827.56;5113300;28;20237;-75
2021/09/21 10:46:49;;;;;;;24.27;13.85;;;;;;;12.86;100.00;94835.59;5113436;28;20205;-75
2021/09/21 10:49:24;;;;;;;22.17;12.55;;;;;;;13.45;100.00;94827.41;5113335;28;20198;-75
2021/09/21 10:51:52;;;;;;;23.67;13.50;;;;;;;13.83;100.00;94826.22;5113199;28;20646;-74
2021/09/21 10:54:29;;;;;;;24.98;13.88;;;;;;;13.59;100.00;94822.22;5113358;28;20201;-76
2021/09/21 10:57:08;;;;;;;26.23;14.02;;;;;;;13.77;100.00;94825.19;5113344;28;20193;-76
2021/09/21 10:59:35;;;;;;;25.67;14.32;;;;;;;13.56;100.00;94822.63;5113404;28;20280;-75
2021/09/21 11:02:05;;;;;;;25.52;13.45;;;;;;;13.26;100.00;94834.09;5113135;28;20644;-76
2021/09/21 11:04:38;;;;;;;27.00;14.15;;;;;;;13.43;100.00;94832.03;5113091;28;20606;-76
2021/09/21 11:07:06;;;;;;;25.52;14.57;;;;;;;13.51;100.00;94826.63;5113300;28;20201;-76
2021/09/21 11:09:33;;;;;;;27.65;13.88;;;;;;;13.81;100.00;94825.59;5113324;28;20200;-77
2021/09/21 11:12:05;;;;;;;25.58;14.45;;;;;;;13.66;100.00;94818.66;5113110;28;20201;-76
2021/09/21 11:14:31;;;;;;;27.55;15.25;;;;;;;13.32;100.00;94827.31;5112918;28;20201;-76
2021/09/21 11:17:00;;;;;;;29.20;16.52;;;;;;;13.45;100.00;94818.72;5113274;28;20201;-76
2021/09/21 11:19:29;;;;;;;25.83;15.18;;;;;;;13.83;100.00;94816.50;5113282;28;20197;-76